Time;durP1;ratioP1;P1;durP2;ratioP2;P2;SDS_P1;SDS_P2;PMS_P1;PMS_P2;Temp;Humidity;BMP_temperature;BMP_pressure;BME280_temperature;BME280_humidity;BME280_pressure;Samples;Min_cycle;Max_cycle;Signal;HPM_P1;HPM_P2
2022/06/12 00:02:21;;;;;;;10.18;3.00;;;14.40;99.90;;;;;;5084877;28;20040;-46
2022/06/12 00:04:47;;;;;;;9.75;2.20;;;14.40;99.90;;;;;;5073798;28;20041;-47
2022/06/12 00:07:13;;;;;;;5.00;2.03;;;14.30;99.90;;;;;;5072172;28;20395;-46
2022/06/12 00:09:38;;;;;;;5.30;2.15;;;14.30;99.90;;;;;;5073408;28;20079;-45
2022/06/12 00:12:04;;;;;;;7.32;3.08;;;14.30;99.90;;;;;;5073609;28;20033;-46
2022/06/12 00:14:30;;;;;;;9.93;3.45;;;14.30;99.90;;;;;;5079639;28;20071;-47
2022/06/12 00:16:56;;;;;;;11.68;3.90;;;14.30;99.90;;;;;;5091349;28;20497;-46
2022/06/12 00:19:22;;;;;;;8.38;3.42;;;14.30;99.90;;;;;;5092767;28;20036;-45
2022/06/12 00:21:48;;;;;;;10.43;3.50;;;14.20;99.90;;;;;;5093133;28;20044;-45
2022/06/12 00:24:17;;;;;;;10.77;2.85;;;14.20;99.90;;;;;;5090712;28;20036;-46
2022/06/12 00:26:50;;;;;;;11.27;2.53;;;14.20;99.90;;;;;;5090180;28;20064;-47
2022/06/12 00:29:23;;;;;;;9.68;2.38;;;14.10;99.90;;;;;;5093169;28;20304;-46
2022/06/12 00:31:56;;;;;;;10.18;3.35;;;14.10;99.90;;;;;;5092919;28;20044;-46
2022/06/12 00:34:26;;;;;;;5.40;1.80;;;14.10;99.90;;;;;;5083827;28;20042;-46
2022/06/12 00:36:53;;;;;;;8.30;2.60;;;14.10;99.90;;;;;;5074081;28;20037;-46
2022/06/12 00:39:20;;;;;;;7.00;1.83;;;14.00;99.90;;;;;;5073331;28;20060;-47
2022/06/12 00:41:48;;;;;;;8.80;3.13;;;13.90;99.90;;;;;;5072234;28;20049;-45
2022/06/12 00:44:18;;;;;;;11.55;3.47;;;13.90;99.90;;;;;;5073305;28;20047;-45
2022/06/12 00:46:50;;;;;;;9.32;3.10;;;13.80;99.90;;;;;;5073814;28;20051;-46
2022/06/12 00:49:18;;;;;;;9.63;3.17;;;13.80;99.90;;;;;;5072108;28;20520;-46
2022/06/12 00:51:47;;;;;;;8.10;3.80;;;13.80;99.90;;;;;;5077072;28;20075;-45
2022/06/12 00:54:13;;;;;;;10.75;3.42;;;13.80;99.90;;;;;;5092015;28;20443;-46
2022/06/12 00:56:43;;;;;;;7.05;3.13;;;13.80;99.90;;;;;;5075300;28;20037;-46
2022/06/12 00:59:13;;;;;;;12.25;3.65;;;13.80;99.90;;;;;;5073988;28;20045;-46
2022/06/12 01:01:43;;;;;;;10.35;3.90;;;13.80;99.90;;;;;;5072448;28;20028;-46
2022/06/12 01:06:57;;;;;;;7.85;3.08;;;13.70;99.90;;;;;;5085694;28;20044;-45
2022/06/12 01:09:30;;;;;;;8.50;3.65;;;13.70;99.90;;;;;;5090908;28;20044;-47
2022/06/12 01:11:58;;;;;;;9.93;4.10;;;13.70;99.90;;;;;;5090833;28;20404;-48
2022/06/12 01:14:29;;;;;;;12.52;3.70;;;13.70;99.90;;;;;;5072900;28;20534;-46
2022/06/12 01:16:57;;;;;;;9.13;3.80;;;13.60;99.90;;;;;;5072000;28;20037;-47
2022/06/12 01:19:29;;;;;;;10.20;3.92;;;13.70;99.90;;;;;;5072911;28;20191;-46
2022/06/12 01:22:13;;;;;;;12.80;3.88;;;13.60;99.90;;;;;;5071638;28;20104;-46
2022/06/12 01:24:47;;;;;;;7.35;3.70;;;13.60;99.90;;;;;;5072487;28;20079;-45
2022/06/12 01:27:34;;;;;;;9.35;2.92;;;13.50;99.90;;;;;;5082145;28;20040;-46
2022/06/12 01:30:07;;;;;;;12.00;4.07;;;13.60;99.90;;;;;;5090068;28;20048;-47
2022/06/12 01:32:59;;;;;;;5.93;1.73;;;13.60;99.90;;;;;;5091606;28;20050;-46
2022/06/12 01:35:50;;;;;;;5.25;1.83;;;13.50;99.90;;;;;;5053504;28;20405;-46
2022/06/12 01:38:28;;;;;;;4.80;2.30;;;13.50;99.90;;;;;;5085372;28;20158;-46
2022/06/12 01:40:57;;;;;;;5.07;1.45;;;13.40;99.90;;;;;;5072024;28;20086;-45
2022/06/12 01:43:50;;;;;;;7.82;2.17;;;13.30;99.90;;;;;;5070319;28;20032;-45
2022/06/12 01:46:21;;;;;;;10.23;3.63;;;13.30;99.90;;;;;;5069935;28;20055;-46
2022/06/12 01:49:06;;;;;;;9.48;3.72;;;13.20;99.90;;;;;;5086790;28;20556;-47
2022/06/12 01:51:40;;;;;;;9.10;3.60;;;13.30;99.90;;;;;;5071040;28;20490;-45
2022/06/12 01:54:22;;;;;;;9.73;3.70;;;13.30;99.90;;;;;;5072368;28;20497;-45
2022/06/12 01:56:57;;;;;;;9.27;3.72;;;13.30;99.90;;;;;;5070030;28;20117;-46
2022/06/12 01:59:41;;;;;;;11.13;3.60;;;13.30;99.90;;;;;;5087990;28;20056;-47
2022/06/12 02:02:38;;;;;;;8.65;3.30;;;13.30;99.90;;;;;;5076191;28;20044;-46
2022/06/12 02:05:22;;;;;;;10.40;3.22;;;13.30;99.90;;;;;;5086436;28;20048;-47
2022/06/12 02:08:11;;;;;;;7.05;2.83;;;13.20;99.90;;;;;;5070990;28;20562;-47
2022/06/12 02:10:44;;;;;;;10.00;3.05;;;13.10;99.90;;;;;;5089942;28;20043;-46
2022/06/12 02:13:19;;;;;;;11.68;3.40;;;13.10;99.90;;;;;;5086558;28;20091;-45
2022/06/12 02:16:03;;;;;;;9.70;3.85;;;13.10;99.90;;;;;;5071622;28;20040;-46
2022/06/12 02:18:36;;;;;;;12.32;4.20;;;13.10;99.90;;;;;;5071473;28;20041;-47
2022/06/12 02:21:13;;;;;;;7.25;3.10;;;13.20;99.90;;;;;;5072257;28;20029;-46
2022/06/12 02:23:41;;;;;;;12.00;3.58;;;13.20;99.90;;;;;;5070327;28;20040;-45
2022/06/12 02:26:12;;;;;;;7.25;3.35;;;13.10;99.90;;;;;;5071293;28;20107;-47
2022/06/12 02:28:55;;;;;;;4.55;2.72;;;13.10;99.90;;;;;;5071335;28;20112;-45
2022/06/12 02:31:26;;;;;;;12.95;3.15;;;13.00;99.90;;;;;;5069960;28;20062;-47
2022/06/12 02:34:01;;;;;;;9.57;3.20;;;13.00;99.90;;;;;;5069916;28;20044;-47
2022/06/12 02:36:37;;;;;;;10.15;3.10;;;13.00;99.90;;;;;;5070100;28;20042;-47
2022/06/12 02:39:11;;;;;;;3.47;2.45;;;13.00;99.90;;;;;;5070113;28;20052;-47
2022/06/12 02:41:48;;;;;;;7.60;3.00;;;13.00;99.90;;;;;;5088055;28;20090;-45
2022/06/12 02:44:32;;;;;;;8.63;2.97;;;13.00;99.90;;;;;;5088583;28;20043;-45
2022/06/12 02:47:08;;;;;;;10.82;3.22;;;13.00;99.90;;;;;;5088367;28;20043;-46
2022/06/12 02:49:37;;;;;;;9.50;4.07;;;12.90;99.90;;;;;;5075897;28;20043;-46
2022/06/12 02:52:19;;;;;;;8.55;3.35;;;13.00;99.90;;;;;;5087535;28;20044;-46
2022/06/12 02:55:17;;;;;;;9.13;3.47;;;12.90;99.90;;;;;;5090019;28;20070;-47
2022/06/12 02:57:53;;;;;;;11.07;3.20;;;12.90;99.90;;;;;;5085898;28;20505;-46
2022/06/12 03:00:43;;;;;;;11.50;3.08;;;12.90;99.90;;;;;;5081796;28;20408;-45
2022/06/12 03:03:23;;;;;;;9.65;2.78;;;13.00;99.90;;;;;;5077112;28;20173;-45
2022/06/12 03:05:52;;;;;;;7.28;2.00;;;13.00;99.90;;;;;;5069804;28;20115;-46
2022/06/12 03:08:23;;;;;;;10.18;2.47;;;13.00;99.90;;;;;;5071361;28;20051;-45
2022/06/12 03:10:53;;;;;;;7.03;1.85;;;13.10;99.90;;;;;;5070213;28;20052;-45
2022/06/12 03:13:20;;;;;;;7.38;2.55;;;13.00;99.90;;;;;;5081563;28;20070;-45
2022/06/12 03:15:56;;;;;;;8.15;1.92;;;13.10;99.90;;;;;;5070029;28;20036;-46
2022/06/12 03:18:27;;;;;;;6.70;1.63;;;13.10;99.90;;;;;;5079458;28;20066;-46
2022/06/12 03:21:02;;;;;;;7.68;2.00;;;13.10;99.90;;;;;;5088466;28;20357;-46
2022/06/12 03:24:04;;;;;;;7.65;1.73;;;13.10;99.90;;;;;;5083747;28;20039;-46
2022/06/12 03:26:30;;;;;;;6.35;1.48;;;13.10;99.90;;;;;;5069614;28;20083;-46
2022/06/12 03:29:13;;;;;;;9.07;1.70;;;13.10;99.90;;;;;;5084098;28;20035;-46
2022/06/12 03:31:50;;;;;;;6.57;1.58;;;13.10;99.90;;;;;;5088227;28;20647;-46
2022/06/12 03:35:10;;;;;;;5.10;1.98;;;13.10;99.90;;;;;;5081101;28;20540;-45
2022/06/12 03:37:42;;;;;;;7.25;1.85;;;13.10;99.90;;;;;;5030723;28;20036;-46
2022/06/12 03:40:14;;;;;;;7.25;2.33;;;13.10;99.90;;;;;;5081584;28;20131;-45
2022/06/12 03:42:53;;;;;;;5.80;1.88;;;13.10;99.90;;;;;;5088494;28;20097;-47
2022/06/12 03:45:37;;;;;;;6.78;1.88;;;13.10;99.90;;;;;;5070693;28;20040;-45
2022/06/12 03:48:25;;;;;;;7.07;2.25;;;13.10;99.90;;;;;;5069983;28;20074;-46
2022/06/12 03:51:14;;;;;;;13.63;3.53;;;13.10;99.90;;;;;;5083704;28;20498;-45
2022/06/12 03:53:58;;;;;;;19.02;5.97;;;13.10;99.90;;;;;;5085677;28;20032;-47
2022/06/12 03:59:29;;;;;;;72.35;21.17;;;13.10;99.90;;;;;;5090343;28;20052;-45
2022/06/12 04:01:56;;;;;;;91.93;27.38;;;13.10;99.90;;;;;;5087335;28;20085;-45
2022/06/12 04:04:24;;;;;;;119.88;38.05;;;13.10;99.90;;;;;;5088415;28;20047;-45
2022/06/12 04:06:52;;;;;;;166.77;49.17;;;13.10;99.90;;;;;;5087118;28;20122;-46
2022/06/12 04:09:23;;;;;;;240.63;72.80;;;13.10;99.90;;;;;;5075252;28;20375;-45
2022/06/12 04:11:54;;;;;;;338.02;109.88;;;13.10;99.90;;;;;;5069035;28;20037;-45
2022/06/12 04:14:23;;;;;;;391.27;125.47;;;13.20;99.90;;;;;;5071289;28;20482;-47
2022/06/12 04:16:53;;;;;;;548.45;228.75;;;13.20;99.90;;;;;;5080055;28;20378;-46
2022/06/12 04:19:22;;;;;;;549.55;240.38;;;13.20;99.90;;;;;;5089517;28;20075;-45
2022/06/12 04:22:10;;;;;;;470.40;213.63;;;13.30;99.90;;;;;;5093060;28;20052;-45
2022/06/12 04:24:42;;;;;;;325.58;139.45;;;13.30;99.90;;;;;;5089771;28;20321;-46
2022/06/12 04:27:20;;;;;;;248.20;114.05;;;13.30;99.90;;;;;;5091503;28;20050;-45
2022/06/12 04:30:15;;;;;;;184.18;86.35;;;13.30;99.90;;;;;;5092780;28;20103;-46
2022/06/12 04:32:41;;;;;;;89.55;46.55;;;13.30;99.90;;;;;;5092499;28;20127;-46
2022/06/12 04:35:07;;;;;;;55.13;28.33;;;13.40;99.90;;;;;;5088191;28;20124;-46
2022/06/12 04:37:33;;;;;;;36.78;17.08;;;13.40;99.90;;;;;;5079237;28;20036;-47
2022/06/12 04:40:01;;;;;;;24.77;10.57;;;13.40;99.90;;;;;;5091000;28;20123;-46
2022/06/12 04:42:30;;;;;;;25.88;12.75;;;13.40;99.90;;;;;;5071879;28;20048;-47
2022/06/12 04:44:57;;;;;;;22.27;12.95;;;13.50;99.90;;;;;;5072207;28;20044;-45
2022/06/12 04:47:24;;;;;;;31.42;18.92;;;13.50;99.90;;;;;;5085482;28;20040;-46
2022/06/12 04:49:52;;;;;;;39.17;20.70;;;13.50;99.90;;;;;;5072536;28;20037;-45
2022/06/12 04:52:21;;;;;;;37.97;20.95;;;13.60;99.90;;;;;;5089999;28;20044;-45
2022/06/12 04:54:47;;;;;;;42.15;18.98;;;13.60;99.90;;;;;;5092639;28;20081;-45
2022/06/12 04:57:16;;;;;;;29.63;13.73;;;13.60;99.90;;;;;;5090189;28;20044;-45
2022/06/12 04:59:44;;;;;;;23.25;8.48;;;13.60;99.90;;;;;;5086638;28;20063;-44
2022/06/12 05:02:10;;;;;;;18.33;8.68;;;13.70;99.90;;;;;;5081451;28;20048;-46
2022/06/12 05:04:36;;;;;;;12.63;7.15;;;13.70;99.90;;;;;;5091947;28;20047;-45
2022/06/12 05:07:03;;;;;;;14.95;7.72;;;13.80;99.90;;;;;;5092114;28;20115;-47
2022/06/12 05:09:32;;;;;;;10.27;6.53;;;13.90;99.90;;;;;;5072244;28;20055;-46
2022/06/12 05:11:58;;;;;;;13.65;7.10;;;14.00;99.90;;;;;;5079303;28;20040;-45
2022/06/12 05:14:23;;;;;;;15.70;7.70;;;14.10;99.90;;;;;;5090407;28;20040;-46
2022/06/12 05:16:53;;;;;;;22.48;11.82;;;14.10;99.90;;;;;;5091028;28;20042;-45
2022/06/12 05:19:21;;;;;;;17.60;8.90;;;14.20;99.90;;;;;;5073764;28;20082;-46
2022/06/12 05:21:47;;;;;;;12.32;5.68;;;14.30;99.90;;;;;;5072381;28;20072;-46
2022/06/12 05:24:13;;;;;;;13.35;5.03;;;14.40;99.90;;;;;;5088374;28;20039;-46
2022/06/12 05:26:39;;;;;;;;;;;14.50;99.90;;;;;;5092576;28;20073;-45
2022/06/12 05:29:08;;;;;;;7.55;1.92;;;14.60;99.90;;;;;;5076594;28;19916;-45
2022/06/12 05:31:35;;;;;;;13.20;2.92;;;14.70;99.90;;;;;;5069960;28;20387;-46
2022/06/12 05:34:01;;;;;;;10.68;2.65;;;14.70;99.90;;;;;;5071104;28;20047;-46
2022/06/12 05:36:27;;;;;;;11.80;3.05;;;14.80;99.90;;;;;;5070573;28;20044;-46
2022/06/12 05:38:52;;;;;;;19.30;4.05;;;14.90;99.90;;;;;;5074029;28;20068;-46
2022/06/12 05:41:19;;;;;;;12.75;3.15;;;14.90;99.90;;;;;;5071325;28;20067;-47
2022/06/12 05:43:45;;;;;;;12.95;2.72;;;15.00;99.90;;;;;;5072632;28;20048;-45
2022/06/12 05:46:12;;;;;;;9.07;2.53;;;15.10;99.90;;;;;;5091234;28;20386;-45
2022/06/12 05:48:39;;;;;;;12.20;2.72;;;15.10;99.90;;;;;;5090644;28;20573;-45
2022/06/12 05:51:05;;;;;;;14.95;3.95;;;15.20;99.90;;;;;;5072474;28;20405;-46
2022/06/12 05:53:36;;;;;;;16.50;3.40;;;15.20;99.90;;;;;;5070752;28;20036;-46
2022/06/12 05:56:05;;;;;;;15.13;2.65;;;15.30;99.90;;;;;;5090393;28;20039;-45
2022/06/12 05:58:34;;;;;;;12.52;2.92;;;15.40;99.90;;;;;;5091226;28;20071;-46
2022/06/12 06:01:00;;;;;;;15.20;3.45;;;15.40;99.90;;;;;;5074397;28;20044;-46
2022/06/12 06:03:26;;;;;;;11.55;2.53;;;15.50;99.90;;;;;;5070328;28;20086;-46
2022/06/12 06:05:51;;;;;;;13.63;3.17;;;15.60;99.90;;;;;;5086165;28;20111;-47
2022/06/12 06:08:17;;;;;;;20.42;3.88;;;15.60;99.90;;;;;;5091470;28;20036;-47
2022/06/12 06:10:44;;;;;;;15.32;3.25;;;15.70;99.90;;;;;;5089312;28;20036;-46
2022/06/12 06:13:10;;;;;;;;;;;15.80;99.90;;;;;;5089403;28;20040;-46
2022/06/12 06:15:37;;;;;;;11.60;3.05;;;15.90;99.90;;;;;;5089513;28;19916;-46
2022/06/12 06:18:04;;;;;;;19.48;3.95;;;16.00;99.90;;;;;;5075190;28;20039;-48
2022/06/12 06:20:33;;;;;;;14.27;3.47;;;16.00;99.90;;;;;;5087700;28;20032;-46
2022/06/12 06:22:59;;;;;;;12.93;3.30;;;16.10;99.90;;;;;;5088264;28;20075;-47
2022/06/12 06:25:28;;;;;;;18.15;3.95;;;16.10;99.90;;;;;;5076527;28;20102;-46
2022/06/12 06:27:55;;;;;;;11.85;3.22;;;16.20;99.90;;;;;;5088442;28;20058;-46
2022/06/12 06:30:21;;;;;;;;;;;16.20;99.90;;;;;;5083023;28;20040;-46
2022/06/12 06:32:47;;;;;;;20.55;3.60;;;16.20;99.90;;;;;;5083630;28;20329;-46
2022/06/12 06:35:14;;;;;;;13.93;3.25;;;16.30;99.90;;;;;;5071851;28;20509;-46
2022/06/12 06:37:41;;;;;;;12.32;3.10;;;16.30;99.90;;;;;;5071530;28;20037;-47
2022/06/12 06:40:10;;;;;;;25.77;4.10;;;16.40;99.90;;;;;;5088826;28;20119;-45
2022/06/12 06:42:36;;;;;;;18.08;5.03;;;16.40;99.90;;;;;;5075197;28;20040;-48
2022/06/12 06:47:47;;;;;;;15.27;4.20;;;16.60;99.90;;;;;;5090112;28;20075;-46
2022/06/12 06:50:16;;;;;;;22.58;4.18;;;16.70;99.90;;;;;;5089143;28;20059;-46
2022/06/12 06:52:41;;;;;;;17.15;4.45;;;16.70;99.90;;;;;;5079789;28;20048;-46
2022/06/12 06:55:09;;;;;;;18.10;4.43;;;16.80;99.90;;;;;;5078254;28;20433;-46
2022/06/12 06:57:36;;;;;;;22.80;3.88;;;16.80;99.90;;;;;;5090437;28;20040;-46
2022/06/12 07:00:04;;;;;;;21.08;5.82;;;16.90;99.90;;;;;;5075029;28;20115;-47
2022/06/12 07:02:30;;;;;;;20.35;5.20;;;17.00;99.90;;;;;;5073935;28;20446;-46
2022/06/12 07:04:56;;;;;;;23.38;5.47;;;17.10;99.90;;;;;;5077847;28;20032;-46
2022/06/12 07:07:22;;;;;;;17.98;4.07;;;17.10;99.90;;;;;;5081211;28;20120;-45
2022/06/12 07:09:47;;;;;;;25.40;5.03;;;17.20;99.90;;;;;;5070230;28;20040;-46
2022/06/12 07:12:13;;;;;;;21.00;4.82;;;17.30;99.90;;;;;;5083972;28;20454;-45
2022/06/12 07:14:38;;;;;;;25.50;4.75;;;17.30;99.90;;;;;;5073921;28;20039;-47
2022/06/12 07:17:04;;;;;;;15.02;5.68;;;17.30;99.90;;;;;;5077231;28;20074;-45
2022/06/12 07:19:30;;;;;;;20.38;4.65;;;17.40;99.90;;;;;;5070997;28;20040;-46
2022/06/12 07:21:55;;;;;;;17.73;4.70;;;17.40;99.90;;;;;;5077554;28;20048;-46
2022/06/12 07:24:21;;;;;;;15.00;4.03;;;17.50;99.90;;;;;;5070561;28;20409;-46
2022/06/12 07:26:48;;;;;;;22.88;4.45;;;17.50;99.90;;;;;;5075190;28;20167;-46
2022/06/12 07:29:21;;;;;;;24.63;6.03;;;17.60;99.90;;;;;;5090213;28;20410;-45
2022/06/12 07:31:47;;;;;;;18.65;5.05;;;17.70;99.90;;;;;;5088817;28;20110;-47
2022/06/12 07:34:14;;;;;;;19.40;4.20;;;17.70;99.90;;;;;;5088097;28;20036;-48
2022/06/12 07:36:42;;;;;;;68.68;8.27;;;17.70;99.90;;;;;;5088888;28;20032;-46
2022/06/12 07:39:11;;;;;;;16.45;4.38;;;17.70;99.90;;;;;;5089468;28;20116;-46
2022/06/12 07:41:37;;;;;;;23.55;5.93;;;17.80;99.90;;;;;;5089215;28;20040;-47
2022/06/12 07:44:03;;;;;;;19.73;4.53;;;17.90;99.90;;;;;;5085599;28;20440;-46
2022/06/12 07:46:29;;;;;;;25.52;5.22;;;18.00;99.90;;;;;;5087793;28;20514;-46
2022/06/12 07:48:55;;;;;;;22.00;4.85;;;18.00;99.90;;;;;;5089865;28;20497;-46
2022/06/12 07:51:22;;;;;;;23.48;5.43;;;18.10;99.90;;;;;;5089475;28;20040;-47
2022/06/12 07:53:50;;;;;;;20.58;4.22;;;18.10;99.90;;;;;;5090081;28;20051;-46
2022/06/12 07:56:17;;;;;;;22.10;6.15;;;18.30;99.90;;;;;;5093144;28;20524;-46
2022/06/12 07:58:43;;;;;;;21.30;5.45;;;18.40;99.90;;;;;;5090114;28;20111;-46
2022/06/12 08:01:10;;;;;;;27.58;4.55;;;18.40;99.90;;;;;;5073439;28;20537;-46
2022/06/12 08:03:36;;;;;;;20.45;6.00;;;18.50;99.90;;;;;;5072133;28;20036;-46
2022/06/12 08:06:02;;;;;;;19.50;5.90;;;18.50;99.90;;;;;;5073831;28;20991;-47
2022/06/12 08:08:29;;;;;;;23.38;4.38;;;18.50;99.90;;;;;;5076536;28;20123;-46
2022/06/12 08:10:55;;;;;;;26.95;5.45;;;18.60;99.90;;;;;;5084154;28;20029;-47
2022/06/12 08:13:23;;;;;;;17.13;4.75;;;18.60;99.90;;;;;;5074377;28;20478;-46
2022/06/12 08:15:50;;;;;;;21.10;5.00;;;18.70;99.90;;;;;;5075726;28;20036;-47
2022/06/12 08:18:17;;;;;;;19.48;4.60;;;18.80;99.90;;;;;;5091491;28;20506;-46
2022/06/12 08:20:47;;;;;;;18.73;5.78;;;18.80;99.90;;;;;;5073710;28;20438;-47
2022/06/12 08:23:26;;;;;;;20.20;5.05;;;18.90;99.90;;;;;;5072472;28;20037;-48
2022/06/12 08:26:00;;;;;;;17.15;4.88;;;18.90;99.90;;;;;;5073258;28;20086;-46
2022/06/12 08:28:28;;;;;;;19.38;6.10;;;19.00;99.90;;;;;;5073931;28;20521;-48
2022/06/12 08:30:54;;;;;;;18.90;4.50;;;19.10;99.90;;;;;;5073043;28;20041;-48
2022/06/12 08:33:20;;;;;;;17.50;4.13;;;19.10;99.90;;;;;;5086588;28;20089;-46
2022/06/12 08:35:46;;;;;;;;;;;19.20;99.90;;;;;;5089153;28;20075;-47
2022/06/12 08:38:12;;;;;;;14.07;3.22;;;19.30;99.90;;;;;;5085282;28;20367;-47
2022/06/12 08:40:53;;;;;;;13.07;3.72;;;19.40;99.90;;;;;;5091834;28;20079;-47
2022/06/12 08:43:33;;;;;;;12.23;3.90;;;19.50;99.90;;;;;;5087773;28;20036;-46
2022/06/12 08:46:08;;;;;;;17.48;4.30;;;19.50;99.90;;;;;;5073851;28;20048;-46
2022/06/12 08:48:44;;;;;;;16.00;3.40;;;19.50;99.90;;;;;;5085697;28;20036;-47
2022/06/12 08:51:17;;;;;;;14.82;3.28;;;19.50;99.90;;;;;;5081948;28;20085;-46
2022/06/12 08:53:56;;;;;;;12.90;4.00;;;19.50;99.90;;;;;;5071736;28;20043;-48
2022/06/12 08:56:32;;;;;;;19.10;3.85;;;19.50;99.90;;;;;;5074204;28;20510;-46
2022/06/12 08:59:03;;;;;;;15.27;4.72;;;19.50;99.90;;;;;;5080139;28;20040;-47
2022/06/12 09:01:29;;;;;;;13.93;3.10;;;19.50;99.90;;;;;;5072129;28;20087;-46
2022/06/12 09:03:56;;;;;;;16.45;3.67;;;19.60;99.90;;;;;;5076639;28;20067;-48
2022/06/12 09:06:51;;;;;;;16.45;3.72;;;19.60;99.90;;;;;;5091866;28;20063;-46
2022/06/12 09:09:23;;;;;;;11.68;2.63;;;19.60;99.90;;;;;;5080148;28;20124;-47
2022/06/12 09:12:03;;;;;;;13.55;3.00;;;19.70;99.90;;;;;;5091900;28;20119;-46
2022/06/12 09:14:53;;;;;;;11.45;2.13;;;19.60;99.90;;;;;;5090099;28;20059;-48
2022/06/12 09:17:47;;;;;;;15.82;3.72;;;19.70;99.90;;;;;;5072205;28;20044;-47
2022/06/12 09:20:41;;;;;;;14.93;3.03;;;19.70;99.90;;;;;;5072083;28;20036;-47
2022/06/12 09:23:30;;;;;;;17.95;4.07;;;19.80;99.90;;;;;;5070888;28;20040;-46
2022/06/12 09:26:20;;;;;;;10.20;2.15;;;19.80;99.90;;;;;;5072760;28;20045;-46
2022/06/12 09:28:45;;;;;;;13.90;3.63;;;19.80;99.90;;;;;;5081410;28;20042;-46
2022/06/12 09:31:23;;;;;;;10.90;3.53;;;19.80;99.90;;;;;;5071163;28;20045;-47
2022/06/12 09:34:17;;;;;;;11.20;2.53;;;19.90;99.90;;;;;;5088993;28;20036;-49
2022/06/12 09:40:42;;;;;;;14.93;2.75;;;20.30;99.90;;;;;;5076513;28;20040;-46
2022/06/12 09:43:31;;;;;;;9.93;2.95;;;20.40;99.90;;;;;;5069105;28;20044;-46
2022/06/12 09:46:14;;;;;;;14.05;2.22;;;20.50;99.90;;;;;;5072173;28;20135;-46
2022/06/12 09:48:55;;;;;;;13.57;2.25;;;20.50;99.90;;;;;;5085919;28;20032;-46
2022/06/12 09:51:47;;;;;;;11.52;1.95;;;20.50;99.90;;;;;;5091547;28;20071;-45
2022/06/12 09:54:42;;;;;;;7.13;1.55;;;20.50;99.90;;;;;;5071818;28;20063;-47
2022/06/12 09:57:32;;;;;;;7.45;1.58;;;20.50;99.90;;;;;;5073248;28;20044;-46
2022/06/12 10:00:06;;;;;;;6.47;0.98;;;20.50;98.30;;;;;;5080798;28;20119;-45
2022/06/12 10:02:42;;;;;;;7.50;1.48;;;20.40;98.40;;;;;;5090567;28;20044;-47
2022/06/12 10:05:24;;;;;;;14.43;2.05;;;20.40;98.70;;;;;;5081891;28;20056;-46
2022/06/12 10:07:59;;;;;;;12.38;2.25;;;20.40;98.60;;;;;;5077564;28;20028;-46
2022/06/12 10:10:32;;;;;;;4.55;1.20;;;20.40;98.70;;;;;;5069906;28;20037;-47
2022/06/12 10:13:04;;;;;;;9.07;2.67;;;20.40;98.20;;;;;;5075356;28;20062;-46
2022/06/12 10:15:34;;;;;;;7.35;1.92;;;20.40;98.20;;;;;;5082603;28;20579;-46
2022/06/12 10:18:14;;;;;;;7.45;1.05;;;20.40;98.30;;;;;;5075636;28;20110;-48
2022/06/12 10:20:55;;;;;;;7.85;1.10;;;20.60;97.80;;;;;;5090838;28;20078;-46
2022/06/12 10:23:22;;;;;;;7.00;1.63;;;20.70;97.30;;;;;;5081307;28;20041;-46
2022/06/12 10:25:52;;;;;;;8.98;1.50;;;20.90;98.20;;;;;;5069980;28;20048;-48
2022/06/12 10:28:26;;;;;;;8.85;1.42;;;20.90;97.50;;;;;;5077376;28;20032;-46
2022/06/12 10:31:00;;;;;;;5.93;1.67;;;20.90;97.60;;;;;;5088790;28;20096;-47
2022/06/12 10:33:31;;;;;;;5.93;0.90;;;20.90;97.00;;;;;;5080452;28;20094;-46
2022/06/12 10:36:03;;;;;;;10.18;1.55;;;21.00;97.60;;;;;;5068773;28;20508;-47
2022/06/12 10:38:34;;;;;;;8.30;1.65;;;21.10;97.70;;;;;;5079135;28;20032;-46
2022/06/12 10:41:02;;;;;;;7.00;1.42;;;21.10;97.80;;;;;;5087928;28;20043;-46
2022/06/12 10:43:38;;;;;;;6.90;1.85;;;21.30;98.20;;;;;;5075925;28;20067;-45
2022/06/12 10:46:15;;;;;;;8.13;1.63;;;21.40;98.20;;;;;;5088641;28;20051;-46
2022/06/12 10:48:42;;;;;;;5.22;1.05;;;21.50;97.60;;;;;;5077911;28;20109;-46
2022/06/12 10:51:13;;;;;;;5.25;1.42;;;21.50;96.90;;;;;;5090393;28;20044;-47
2022/06/12 10:53:40;;;;;;;17.98;2.50;;;21.40;96.70;;;;;;5081962;28;20120;-47
2022/06/12 10:56:22;;;;;;;12.18;2.08;;;21.40;96.60;;;;;;5079161;28;20085;-47
2022/06/12 10:59:31;;;;;;;10.23;1.55;;;21.40;97.10;;;;;;5081797;28;20194;-47
2022/06/12 11:02:31;;;;;;;7.03;1.40;;;21.40;96.10;;;;;;5050130;28;20044;-47
2022/06/12 11:05:19;;;;;;;8.57;1.25;;;21.40;95.40;;;;;;5056670;28;20048;-46
2022/06/12 11:07:52;;;;;;;;;;;21.50;95.50;;;;;;5090453;28;20051;-45
2022/06/12 11:10:40;;;;;;;7.53;1.33;;;21.50;95.10;;;;;;5086271;28;19920;-47
2022/06/12 11:13:39;;;;;;;7.35;1.52;;;21.60;95.10;;;;;;5075010;28;20044;-47
2022/06/12 11:16:21;;;;;;;13.00;2.67;;;21.60;95.00;;;;;;5071469;28;20093;-47
2022/06/12 11:19:06;;;;;;;29.60;4.43;;;21.70;96.60;;;;;;5085418;28;20398;-47
2022/06/12 11:21:46;;;;;;;6.75;1.60;;;21.80;96.00;;;;;;5069431;28;20044;-48
2022/06/12 11:24:54;;;;;;;6.40;1.63;;;21.80;96.40;;;;;;5080631;28;20064;-45
2022/06/12 11:27:43;;;;;;;7.40;1.65;;;21.80;96.60;;;;;;5070756;28;20040;-46
2022/06/12 11:30:28;;;;;;;5.45;1.25;;;21.90;96.80;;;;;;5075518;28;20050;-47
2022/06/12 11:33:09;;;;;;;5.10;1.10;;;22.00;95.70;;;;;;5071339;28;20066;-48
2022/06/12 11:36:09;;;;;;;5.22;0.95;;;22.00;95.50;;;;;;5089030;28;20036;-47
2022/06/12 11:38:48;;;;;;;4.93;0.70;;;22.10;95.70;;;;;;5089134;28;20107;-48
2022/06/12 11:41:43;;;;;;;6.90;1.00;;;22.10;93.90;;;;;;5081180;28;20039;-49
2022/06/12 11:44:17;;;;;;;13.43;0.90;;;22.20;95.10;;;;;;5087335;28;20071;-48
2022/06/12 11:46:58;;;;;;;4.47;0.88;;;22.20;94.90;;;;;;5090120;28;20075;-47
2022/06/12 11:49:31;;;;;;;4.68;1.33;;;22.30;94.80;;;;;;5083864;28;20043;-48
2022/06/12 11:52:19;;;;;;;19.10;2.88;;;22.30;93.20;;;;;;5081058;28;20412;-48
2022/06/12 11:55:11;;;;;;;27.92;15.82;;;22.30;93.70;;;;;;5086947;28;20075;-51
2022/06/12 11:57:59;;;;;;;5.80;1.15;;;22.30;91.60;;;;;;5089860;28;20040;-47
2022/06/12 12:00:28;;;;;;;10.90;4.03;;;22.10;92.90;;;;;;5076090;28;20040;-49
2022/06/12 12:03:05;;;;;;;7.72;1.15;;;22.10;93.70;;;;;;5068674;28;20406;-49
2022/06/12 12:05:45;;;;;;;4.85;0.65;;;22.20;93.60;;;;;;5070613;28;20120;-49
2022/06/12 12:08:52;;;;;;;9.15;2.45;;;22.30;92.70;;;;;;5069560;28;20041;-49
2022/06/12 12:11:27;;;;;;;7.07;1.20;;;22.40;93.50;;;;;;5068612;28;20083;-47
2022/06/12 12:13:56;;;;;;;6.90;0.98;;;22.40;93.00;;;;;;5076218;28;20037;-47
2022/06/12 12:16:38;;;;;;;6.95;0.95;;;22.40;92.90;;;;;;5083899;28;20047;-51
2022/06/12 12:19:19;;;;;;;5.35;1.40;;;22.50;92.10;;;;;;5101419;28;20093;-51
2022/06/12 12:21:54;;;;;;;6.07;1.83;;;22.40;92.20;;;;;;5077414;28;20151;-50
2022/06/12 12:24:31;;;;;;;7.68;2.00;;;22.50;93.00;;;;;;5070528;28;20040;-48
2022/06/12 12:27:01;;;;;;;6.93;1.35;;;22.50;91.90;;;;;;5089961;28;20044;-48
2022/06/12 12:29:31;;;;;;;6.75;1.42;;;22.40;92.40;;;;;;5087859;28;20137;-48
2022/06/12 12:31:58;;;;;;;3.42;1.55;;;22.40;92.50;;;;;;5088431;28;20093;-49
2022/06/12 12:34:26;;;;;;;22.30;2.47;;;22.40;91.20;;;;;;5078669;28;20489;-48
2022/06/12 12:42:27;;;;;;;4.82;0.98;;;22.50;90.70;;;;;;5091925;28;20044;-49
2022/06/12 12:44:53;;;;;;;5.95;1.45;;;22.50;91.40;;;;;;5079257;28;20039;-48
2022/06/12 12:47:29;;;;;;;;;;;22.50;91.00;;;;;;5093589;28;20028;-51
2022/06/12 12:50:08;;;;;;;4.93;0.65;;;22.50;91.10;;;;;;5091157;28;19916;-48
2022/06/12 12:52:56;;;;;;;6.72;1.20;;;22.50;90.70;;;;;;5091426;28;20152;-48
2022/06/12 12:55:35;;;;;;;2.55;0.93;;;22.50;90.20;;;;;;5089355;28;20028;-48
2022/06/12 12:58:22;;;;;;;2.92;0.93;;;22.40;89.90;;;;;;5072508;28;20102;-48
2022/06/12 13:00:47;;;;;;;;;;;22.40;90.60;;;;;;5073958;28;20375;-49
2022/06/12 13:03:36;;;;;;;4.35;0.70;;;22.40;88.70;;;;;;5070794;28;19974;-51
2022/06/12 13:06:33;;;;;;;8.70;1.58;;;22.40;90.40;;;;;;5076217;28;20129;-49
2022/06/12 13:09:30;;;;;;;7.90;0.70;;;22.50;88.80;;;;;;5077626;28;20032;-48
2022/06/12 13:12:05;;;;;;;2.63;0.55;;;22.60;87.70;;;;;;5088615;28;20040;-48
2022/06/12 13:14:39;;;;;;;3.78;0.93;;;22.60;90.10;;;;;;5091818;28;20050;-49
2022/06/12 13:17:32;;;;;;;9.23;0.73;;;22.60;89.60;;;;;;5090610;28;20040;-47
2022/06/12 13:20:10;;;;;;;7.28;0.95;;;22.60;89.00;;;;;;5072797;28;20501;-48
2022/06/12 13:23:05;;;;;;;4.57;0.52;;;22.70;89.80;;;;;;5089413;28;20439;-47
2022/06/12 13:25:36;;;;;;;6.53;1.52;;;22.70;89.20;;;;;;5087308;28;20064;-47
2022/06/12 13:28:02;;;;;;;5.20;0.90;;;22.60;87.80;;;;;;5071923;28;20051;-47
2022/06/12 13:30:47;;;;;;;;;;;22.50;87.00;;;;;;5072732;28;20460;-47
2022/06/12 13:33:23;;;;;;;5.15;0.55;;;22.50;88.10;;;;;;5089785;28;19920;-47
2022/06/12 13:36:04;;;;;;;5.18;1.48;;;22.50;85.30;;;;;;5087954;28;20043;-47
2022/06/12 13:38:47;;;;;;;6.05;1.20;;;22.50;85.80;;;;;;5091867;28;20067;-47